Hosei Maru No.7 — JK5642 — position and weather

sailwx.info

Track history (hours):
 
Tides and Currents Weather Stations Pressure Air Temp Water Temp Dewpoint Dewpoint Depression Visibility Wind Speed Wind Dir Waves Ship Positions

Hosei Maru No.7

Last reported at 2017-Oct-21 18:45 UTC. Time now 2017-Oct-22 17:09 UTC.
Position N 34°21' E 135°07'.

Length 60 m; draft 3.8 m.

Type: Tanker. MMSI: 431401974.

Date/timePositionNaut miles runAvg speedWind from/ knotsBaromVisibWave heightAir tempDewpointWater temp
2017-Oct-21 18:45N 34°21' E 135°07'0 0.0
2017-Oct-21 18:28N 34°21' E 135°07'0 0.0
2017-Oct-21 17:33N 34°21' E 135°07'0 0.0
2017-Oct-21 17:26N 34°21' E 135°07'0 0.0
2017-Oct-21 16:51N 34°21' E 135°07'0 0.0
2017-Oct-21 16:25N 34°21' E 135°07'0 0.0
2017-Oct-21 15:53N 34°21' E 135°07'5 0.4
2017-Oct-21 04:34N 34°25' E 135°10'112.3
2017-Oct-21 04:30N 34°26' E 135°10'612.3
2017-Oct-21 04:00N 34°31' E 135°14'612.3
2017-Oct-21 03:30N 34°36' E 135°19'3 6.6
2017-Oct-21 03:00N 34°39' E 135°21'0 0.0
2017-Oct-21 02:30N 34°39' E 135°21'0 0.5
2017-Oct-21 02:00N 34°39' E 135°21'5 9.3
2017-Oct-21 01:30N 34°40' E 135°27'0 0.2
2017-Oct-21 00:04N 34°40' E 135°27'0 0.0
2017-Oct-20 23:48N 34°40' E 135°27'0 0.0
2017-Oct-20 23:30N 34°40' E 135°27'0 0.0
2017-Oct-20 23:00N 34°40' E 135°27'2 3.8
2017-Oct-20 22:30N 34°39' E 135°25'3 6.7
2017-Oct-20 22:00N 34°39' E 135°21'0 0.0
2017-Oct-20 21:30N 34°39' E 135°21'0 0.0
2017-Oct-20 21:00N 34°39' E 135°21'0 0.0
2017-Oct-20 20:30N 34°39' E 135°21'0 0.0
2017-Oct-20 20:00N 34°39' E 135°21'0 0.0
2017-Oct-20 19:30N 34°39' E 135°21'0 0.0
2017-Oct-20 19:00N 34°39' E 135°21'0 0.0
2017-Oct-20 18:30N 34°39' E 135°21'0 0.0
2017-Oct-20 18:00N 34°39' E 135°21'0 0.0
2017-Oct-20 17:30N 34°39' E 135°21'0 0.0
2017-Oct-20 16:59N 34°39' E 135°21'0 0.0
2017-Oct-20 16:30N 34°39' E 135°21'0 0.0
2017-Oct-20 16:00N 34°39' E 135°21'0 0.0
2017-Oct-20 15:30N 34°39' E 135°21'0 0.0
2017-Oct-20 15:00N 34°39' E 135°21'0 0.0
2017-Oct-20 14:30N 34°39' E 135°21'0 0.0
2017-Oct-20 13:30N 34°39' E 135°21'510.4
2017-Oct-20 13:00N 34°36' E 135°15'611.4
2017-Oct-20 12:30N 34°35' E 135°09'510.7
2017-Oct-20 12:00N 34°36' E 135°02'  
2017-Oct-18 06:42N 35°00' E 139°27'310.6
2017-Oct-18 06:24N 35°02' E 139°31'411.4
2017-Oct-18 06:00N 35°04' E 139°35'611.7
2017-Oct-18 05:30N 35°07' E 139°41'611.4
2017-Oct-18 05:01N 35°12' E 139°45'510.3
2017-Oct-18 04:30N 35°17' E 139°45'510.9
2017-Oct-18 04:00N 35°22' E 139°42'510.6
2017-Oct-18 03:30N 35°26' E 139°46'611.9
2017-Oct-18 03:01N 35°30' E 139°52'611.8
2017-Oct-18 02:30N 35°30' E 139°59'3 0.3
2017-Oct-17 16:30N 35°29' E 139°56'0 0.0
2017-Oct-17 09:21N 35°29' E 139°56'0 0.0
2017-Oct-17 07:57N 35°29' E 139°56'0 0.0
2017-Oct-17 07:21N 35°29' E 139°56'0 0.0
2017-Oct-17 06:57N 35°29' E 139°56'0 0.0
2017-Oct-17 02:05N 35°29' E 139°56'1 3.4
2017-Oct-17 01:56N 35°29' E 139°55'511.1
2017-Oct-17 01:30N 35°30' E 139°49'3 5.9
2017-Oct-17 00:59N 35°31' E 139°46'0 0.0
2017-Oct-17 00:30N 35°31' E 139°46'0 0.0
2017-Oct-17 00:00N 35°31' E 139°46'0 0.0
2017-Oct-16 23:22N 35°31' E 139°46'2 5.0
2017-Oct-16 23:00N 35°30' E 139°48'2 3.8
2017-Oct-16 22:30N 35°29' E 139°46'0 0.0
2017-Oct-16 22:00N 35°29' E 139°46'0 0.0
2017-Oct-16 21:30N 35°29' E 139°46'0 0.0
2017-Oct-16 21:00N 35°29' E 139°46'0 0.0
2017-Oct-16 20:30N 35°29' E 139°46'0 0.0
2017-Oct-16 20:00N 35°29' E 139°46'0 0.0
2017-Oct-16 19:30N 35°29' E 139°46'0 0.0
2017-Oct-16 19:00N 35°29' E 139°46'0 0.0
2017-Oct-16 18:30N 35°29' E 139°46'0 0.0
2017-Oct-16 18:00N 35°29' E 139°46'0 0.0
2017-Oct-16 17:28N 35°29' E 139°46'0 0.0
2017-Oct-16 17:00N 35°29' E 139°46'0 0.0
2017-Oct-16 16:30N 35°29' E 139°46'0 0.0
2017-Oct-16 16:00N 35°29' E 139°46'0 0.0
2017-Oct-16 15:30N 35°29' E 139°46'0 0.0
2017-Oct-16 15:00N 35°29' E 139°46'0 0.0
2017-Oct-16 14:00N 35°29' E 139°46'0 0.0
2017-Oct-16 13:30N 35°29' E 139°46'0 0.0
2017-Oct-16 13:00N 35°29' E 139°46'0 0.0
2017-Oct-16 12:30N 35°29' E 139°46'0 0.0
2017-Oct-16 12:00N 35°29' E 139°46'0 0.0
2017-Oct-16 11:30N 35°29' E 139°46'0 0.1
2017-Oct-16 11:00N 35°29' E 139°46'0 0.1
2017-Oct-16 10:30N 35°29' E 139°46'0 0.0
2017-Oct-16 10:00N 35°29' E 139°46'0 0.0
2017-Oct-16 09:30N 35°29' E 139°46'0 0.0
2017-Oct-16 09:00N 35°29' E 139°46'0 0.0
2017-Oct-16 08:30N 35°29' E 139°46'0 0.0
2017-Oct-16 08:00N 35°29' E 139°46'0 0.0
2017-Oct-16 07:30N 35°29' E 139°46'1 2.5
2017-Oct-16 06:59N 35°30' E 139°47'2 0.9
2017-Oct-16 04:31N 35°31' E 139°46'0 0.0
2017-Oct-16 04:19N 35°31' E 139°46'0 0.0
2017-Oct-16 04:00N 35°31' E 139°46'3 6.7
2017-Oct-16 03:30N 35°31' E 139°50'  
2017-Oct-12 22:51N 35°30' E 139°57'1 0.8
2017-Oct-12 20:55N 35°29' E 139°56'0 0.0
2017-Oct-12 07:54N 35°29' E 139°56'4 9.3
2017-Oct-12 07:30N 35°28' E 139°51'612.1
2017-Oct-12 07:00N 35°24' E 139°46'611.3
2017-Oct-12 06:30N 35°18' E 139°44'611.4
2017-Oct-12 06:00N 35°13' E 139°47'611.3
2017-Oct-12 05:30N 35°08' E 139°44'611.3
2017-Oct-12 05:00N 35°04' E 139°39'611.7
2017-Oct-12 04:30N 34°60' E 139°34'  
Track history (hours):
 
Tides and Currents Weather Stations Pressure Air Temp Water Temp Dewpoint Dewpoint Depression Visibility Wind Speed Wind Dir Waves Ship Positions

Hosei Maru No.7

Last reported at 2017-Oct-21 18:45 UTC. Time now 2017-Oct-22 17:09 UTC.
Position N 34°21' E 135°07'.

Length 60 m; draft 3.8 m.

Type: Tanker. MMSI: 431401974.

Date/timePositionNaut miles runAvg speedWind from/ knotsBaromVisibWave heightAir tempDewpointWater temp
2017-Oct-21 18:45N 34°21' E 135°07'0 0.0
2017-Oct-21 18:28N 34°21' E 135°07'0 0.0
2017-Oct-21 17:33N 34°21' E 135°07'0 0.0
2017-Oct-21 17:26N 34°21' E 135°07'0 0.0
2017-Oct-21 16:51N 34°21' E 135°07'0 0.0
2017-Oct-21 16:25N 34°21' E 135°07'0 0.0
2017-Oct-21 15:53N 34°21' E 135°07'5 0.4
2017-Oct-21 04:34N 34°25' E 135°10'112.3
2017-Oct-21 04:30N 34°26' E 135°10'612.3
2017-Oct-21 04:00N 34°31' E 135°14'612.3
2017-Oct-21 03:30N 34°36' E 135°19'3 6.6
2017-Oct-21 03:00N 34°39' E 135°21'0 0.0
2017-Oct-21 02:30N 34°39' E 135°21'0 0.5
2017-Oct-21 02:00N 34°39' E 135°21'5 9.3
2017-Oct-21 01:30N 34°40' E 135°27'0 0.2
2017-Oct-21 00:04N 34°40' E 135°27'0 0.0
2017-Oct-20 23:48N 34°40' E 135°27'0 0.0
2017-Oct-20 23:30N 34°40' E 135°27'0 0.0
2017-Oct-20 23:00N 34°40' E 135°27'2 3.8
2017-Oct-20 22:30N 34°39' E 135°25'3 6.7
2017-Oct-20 22:00N 34°39' E 135°21'0 0.0
2017-Oct-20 21:30N 34°39' E 135°21'0 0.0
2017-Oct-20 21:00N 34°39' E 135°21'0 0.0
2017-Oct-20 20:30N 34°39' E 135°21'0 0.0
2017-Oct-20 20:00N 34°39' E 135°21'0 0.0
2017-Oct-20 19:30N 34°39' E 135°21'0 0.0
2017-Oct-20 19:00N 34°39' E 135°21'0 0.0
2017-Oct-20 18:30N 34°39' E 135°21'0 0.0
2017-Oct-20 18:00N 34°39' E 135°21'0 0.0
2017-Oct-20 17:30N 34°39' E 135°21'0 0.0
2017-Oct-20 16:59N 34°39' E 135°21'0 0.0
2017-Oct-20 16:30N 34°39' E 135°21'0 0.0
2017-Oct-20 16:00N 34°39' E 135°21'0 0.0
2017-Oct-20 15:30N 34°39' E 135°21'0 0.0
2017-Oct-20 15:00N 34°39' E 135°21'0 0.0
2017-Oct-20 14:30N 34°39' E 135°21'0 0.0
2017-Oct-20 13:30N 34°39' E 135°21'510.4
2017-Oct-20 13:00N 34°36' E 135°15'611.4
2017-Oct-20 12:30N 34°35' E 135°09'510.7
2017-Oct-20 12:00N 34°36' E 135°02'  
2017-Oct-18 06:42N 35°00' E 139°27'310.6
2017-Oct-18 06:24N 35°02' E 139°31'411.4
2017-Oct-18 06:00N 35°04' E 139°35'611.7
2017-Oct-18 05:30N 35°07' E 139°41'611.4
2017-Oct-18 05:01N 35°12' E 139°45'510.3
2017-Oct-18 04:30N 35°17' E 139°45'510.9
2017-Oct-18 04:00N 35°22' E 139°42'510.6
2017-Oct-18 03:30N 35°26' E 139°46'611.9
2017-Oct-18 03:01N 35°30' E 139°52'611.8
2017-Oct-18 02:30N 35°30' E 139°59'3 0.3
2017-Oct-17 16:30N 35°29' E 139°56'0 0.0
2017-Oct-17 09:21N 35°29' E 139°56'0 0.0
2017-Oct-17 07:57N 35°29' E 139°56'0 0.0
2017-Oct-17 07:21N 35°29' E 139°56'0 0.0
2017-Oct-17 06:57N 35°29' E 139°56'0 0.0
2017-Oct-17 02:05N 35°29' E 139°56'1 3.4
2017-Oct-17 01:56N 35°29' E 139°55'511.1
2017-Oct-17 01:30N 35°30' E 139°49'3 5.9
2017-Oct-17 00:59N 35°31' E 139°46'0 0.0
2017-Oct-17 00:30N 35°31' E 139°46'0 0.0
2017-Oct-17 00:00N 35°31' E 139°46'0 0.0
2017-Oct-16 23:22N 35°31' E 139°46'2 5.0
2017-Oct-16 23:00N 35°30' E 139°48'2 3.8
2017-Oct-16 22:30N 35°29' E 139°46'0 0.0
2017-Oct-16 22:00N 35°29' E 139°46'0 0.0
2017-Oct-16 21:30N 35°29' E 139°46'0 0.0
2017-Oct-16 21:00N 35°29' E 139°46'0 0.0
2017-Oct-16 20:30N 35°29' E 139°46'0 0.0
2017-Oct-16 20:00N 35°29' E 139°46'0 0.0
2017-Oct-16 19:30N 35°29' E 139°46'0 0.0
2017-Oct-16 19:00N 35°29' E 139°46'0 0.0
2017-Oct-16 18:30N 35°29' E 139°46'0 0.0
2017-Oct-16 18:00N 35°29' E 139°46'0 0.0
2017-Oct-16 17:28N 35°29' E 139°46'0 0.0
2017-Oct-16 17:00N 35°29' E 139°46'0 0.0
2017-Oct-16 16:30N 35°29' E 139°46'0 0.0
2017-Oct-16 16:00N 35°29' E 139°46'0 0.0
2017-Oct-16 15:30N 35°29' E 139°46'0 0.0
2017-Oct-16 15:00N 35°29' E 139°46'0 0.0
2017-Oct-16 14:00N 35°29' E 139°46'0 0.0
2017-Oct-16 13:30N 35°29' E 139°46'0 0.0
2017-Oct-16 13:00N 35°29' E 139°46'0 0.0
2017-Oct-16 12:30N 35°29' E 139°46'0 0.0
2017-Oct-16 12:00N 35°29' E 139°46'0 0.0
2017-Oct-16 11:30N 35°29' E 139°46'0 0.1
2017-Oct-16 11:00N 35°29' E 139°46'0 0.1
2017-Oct-16 10:30N 35°29' E 139°46'0 0.0
2017-Oct-16 10:00N 35°29' E 139°46'0 0.0
2017-Oct-16 09:30N 35°29' E 139°46'0 0.0
2017-Oct-16 09:00N 35°29' E 139°46'0 0.0
2017-Oct-16 08:30N 35°29' E 139°46'0 0.0
2017-Oct-16 08:00N 35°29' E 139°46'0 0.0
2017-Oct-16 07:30N 35°29' E 139°46'1 2.5
2017-Oct-16 06:59N 35°30' E 139°47'2 0.9
2017-Oct-16 04:31N 35°31' E 139°46'0 0.0
2017-Oct-16 04:19N 35°31' E 139°46'0 0.0
2017-Oct-16 04:00N 35°31' E 139°46'3 6.7
2017-Oct-16 03:30N 35°31' E 139°50'  
2017-Oct-12 22:51N 35°30' E 139°57'1 0.8
2017-Oct-12 20:55N 35°29' E 139°56'0 0.0
2017-Oct-12 07:54N 35°29' E 139°56'4 9.3
2017-Oct-12 07:30N 35°28' E 139°51'612.1
2017-Oct-12 07:00N 35°24' E 139°46'611.3
2017-Oct-12 06:30N 35°18' E 139°44'611.4
2017-Oct-12 06:00N 35°13' E 139°47'611.3
2017-Oct-12 05:30N 35°08' E 139°44'611.3
2017-Oct-12 05:00N 35°04' E 139°39'611.7
2017-Oct-12 04:30N 34°60' E 139°34'  

Dump ship's entire track history